Time;durP1;ratioP1;P1;durP2;ratioP2;P2;SDS_P1;SDS_P2;PMS_P1;PMS_P2;Temp;Humidity;BMP_temperature;BMP_pressure;BME280_temperature;BME280_humidity;BME280_pressure;Samples;Min_cycle;Max_cycle;Signal;HPM_P1;HPM_P2
2022/06/30 00:00:31;;;;;;;7.50;3.77;;;22.00;1.00;;;;;;5091946;28;20567;-75
2022/06/30 00:02:57;;;;;;;9.40;3.67;;;21.90;1.00;;;;;;5095742;28;20966;-76
2022/06/30 00:05:33;;;;;;;7.10;4.23;;;21.90;1.00;;;;;;5093484;28;20472;-76
2022/06/30 00:08:00;;;;;;;8.40;4.00;;;21.90;1.00;;;;;;5095590;28;20539;-77
2022/06/30 00:10:29;;;;;;;7.30;4.33;;;21.90;1.00;;;;;;5087866;28;20467;-76
2022/06/30 00:13:00;;;;;;;7.23;4.60;;;21.90;1.00;;;;;;5094331;28;20429;-76
2022/06/30 00:15:29;;;;;;;7.60;3.73;;;21.90;1.00;;;;;;5092778;28;20439;-76
2022/06/30 00:18:01;;;;;;;7.80;3.57;;;21.90;1.00;;;;;;5091927;28;20435;-76
2022/06/30 00:20:30;;;;;;;7.23;4.10;;;21.80;1.00;;;;;;5092652;28;20510;-78
2022/06/30 00:23:01;;;;;;;6.70;3.93;;;21.80;1.00;;;;;;5092523;28;20409;-79
2022/06/30 00:25:30;;;;;;;9.20;3.87;;;21.90;1.00;;;;;;5087609;28;20430;-79
2022/06/30 00:27:57;;;;;;;7.70;3.97;;;21.80;1.00;;;;;;5090841;28;20455;-76
2022/06/30 00:30:24;;;;;;;7.80;4.53;;;21.90;1.00;;;;;;5082307;28;20521;-77
2022/06/30 00:32:51;;;;;;;7.50;3.60;;;21.90;1.00;;;;;;5089346;28;20556;-75
2022/06/30 00:35:20;;;;;;;8.37;3.90;;;22.00;1.00;;;;;;5088101;28;20469;-76
2022/06/30 00:37:47;;;;;;;6.90;3.53;;;22.00;1.00;;;;;;5086904;28;20447;-77
2022/06/30 00:40:22;;;;;;;6.87;3.77;;;22.00;1.00;;;;;;5093089;28;21388;-79
2022/06/30 00:42:50;;;;;;;8.30;3.93;;;22.10;1.00;;;;;;5092441;28;20466;-79
2022/06/30 00:45:21;;;;;;;7.97;3.80;;;22.00;1.00;;;;;;5094529;28;20472;-78
2022/06/30 00:47:48;;;;;;;8.50;4.00;;;22.00;1.00;;;;;;5069418;28;20533;-77
2022/06/30 00:50:20;;;;;;;7.10;4.30;;;22.00;1.00;;;;;;5081550;28;20564;-79
2022/06/30 00:52:50;;;;;;;7.37;3.83;;;22.00;1.00;;;;;;5094717;28;20825;-79
2022/06/30 00:55:23;;;;;;;8.27;4.10;;;22.00;1.00;;;;;;5095241;28;20513;-76
2022/06/30 00:57:50;;;;;;;7.23;4.10;;;22.00;1.00;;;;;;5092164;28;20445;-77
2022/06/30 01:00:21;;;;;;;8.30;4.60;;;22.00;1.00;;;;;;5093060;28;20457;-79
2022/06/30 01:02:48;;;;;;;7.37;4.23;;;22.10;1.00;;;;;;5092153;28;20472;-77
2022/06/30 01:05:20;;;;;;;8.63;4.60;;;22.10;1.00;;;;;;5090759;28;21127;-79
2022/06/30 01:07:48;;;;;;;7.70;4.40;;;22.00;1.00;;;;;;5093320;28;20529;-79
2022/06/30 01:13:02;;;;;;;7.50;4.30;;;22.10;1.00;;;;;;5090199;28;20423;-77
2022/06/30 01:15:29;;;;;;;7.80;4.03;;;22.10;1.00;;;;;;5080128;28;20499;-79
2022/06/30 01:18:00;;;;;;;8.90;4.57;;;22.10;1.00;;;;;;5073519;28;20660;-79
2022/06/30 01:20:29;;;;;;;9.50;4.23;;;22.10;1.00;;;;;;5090194;28;21596;-76
2022/06/30 01:23:03;;;;;;;9.97;4.53;;;22.10;1.00;;;;;;5091773;28;20438;-80
2022/06/30 01:25:33;;;;;;;11.07;5.23;;;22.10;1.00;;;;;;5089791;28;20506;-79
2022/06/30 01:28:01;;;;;;;7.73;4.10;;;22.10;1.00;;;;;;5092125;28;20465;-78
2022/06/30 01:30:29;;;;;;;8.23;4.37;;;22.10;1.00;;;;;;5092372;28;20550;-78
2022/06/30 01:33:07;;;;;;;8.43;4.80;;;22.10;1.00;;;;;;5095724;28;20688;-78
2022/06/30 01:35:39;;;;;;;7.73;4.77;;;22.10;1.00;;;;;;5092001;28;21029;-75
2022/06/30 01:38:07;;;;;;;7.80;4.73;;;22.10;1.00;;;;;;5093027;28;20553;-76
2022/06/30 01:40:41;;;;;;;9.20;4.40;;;22.10;1.00;;;;;;5090134;28;20549;-75
2022/06/30 01:43:11;;;;;;;7.47;4.40;;;22.20;1.00;;;;;;5079021;28;20517;-77
2022/06/30 01:45:41;;;;;;;7.70;3.80;;;22.20;1.00;;;;;;5055137;28;20609;-78
2022/06/30 01:48:10;;;;;;;8.33;4.97;;;22.10;1.00;;;;;;5089698;28;20937;-79
2022/06/30 01:50:38;;;;;;;11.97;4.83;;;22.10;1.00;;;;;;5085820;28;20541;-78
2022/06/30 01:53:06;;;;;;;8.93;4.80;;;22.10;1.00;;;;;;5070900;28;20459;-78
2022/06/30 01:55:33;;;;;;;9.87;5.10;;;22.10;1.00;;;;;;5077627;28;20517;-79
2022/06/30 01:58:01;;;;;;;9.50;4.80;;;22.00;1.00;;;;;;5088938;28;20463;-79
2022/06/30 02:00:28;;;;;;;7.07;3.73;;;22.00;1.00;;;;;;5087969;28;20493;-79
2022/06/30 02:02:58;;;;;;;11.47;5.53;;;21.90;1.00;;;;;;5091391;28;20526;-79
2022/06/30 02:05:26;;;;;;;8.43;4.90;;;21.90;1.00;;;;;;5088053;28;20499;-79
2022/06/30 02:07:53;;;;;;;11.30;4.90;;;21.90;1.00;;;;;;5090249;28;20449;-79
2022/06/30 02:10:26;;;;;;;8.70;4.93;;;21.90;1.00;;;;;;5088728;28;20885;-79
2022/06/30 02:12:53;;;;;;;12.97;8.00;;;21.90;1.00;;;;;;5089436;28;20530;-78
2022/06/30 02:15:24;;;;;;;8.80;5.00;;;21.90;1.00;;;;;;5087297;28;20474;-78
2022/06/30 02:17:55;;;;;;;9.17;5.10;;;22.00;1.00;;;;;;5091220;28;20464;-78
2022/06/30 02:20:24;;;;;;;9.20;4.43;;;22.00;1.00;;;;;;5088862;28;20459;-79
2022/06/30 02:22:53;;;;;;;8.07;4.33;;;22.00;1.00;;;;;;5091620;28;20552;-79
2022/06/30 02:25:25;;;;;;;8.03;4.73;;;21.90;1.00;;;;;;5091698;28;20488;-79
2022/06/30 02:27:52;;;;;;;9.10;5.00;;;21.90;1.00;;;;;;5090551;28;20485;-79
2022/06/30 02:30:19;;;;;;;9.07;5.13;;;21.90;1.00;;;;;;5093271;28;20433;-79
2022/06/30 02:32:49;;;;;;;10.67;5.30;;;21.90;1.00;;;;;;5091805;28;20454;-79
2022/06/30 02:35:18;;;;;;;8.47;4.23;;;21.80;1.00;;;;;;5094020;28;20466;-79
2022/06/30 02:37:47;;;;;;;11.63;5.50;;;21.80;1.00;;;;;;5093045;28;20434;-79
2022/06/30 02:40:15;;;;;;;8.50;4.93;;;21.90;1.00;;;;;;5083689;28;20545;-78
2022/06/30 02:42:44;;;;;;;9.33;5.20;;;21.90;1.00;;;;;;5087825;28;21195;-79
2022/06/30 02:45:11;;;;;;;9.03;4.73;;;21.80;1.00;;;;;;5091144;28;20557;-78
2022/06/30 02:47:45;;;;;;;7.53;4.60;;;21.90;1.00;;;;;;5092390;28;20976;-79
2022/06/30 02:50:13;;;;;;;8.40;4.73;;;21.80;1.00;;;;;;5091252;28;20524;-79
2022/06/30 02:52:43;;;;;;;10.13;5.57;;;21.80;1.00;;;;;;5096797;28;20543;-76
2022/06/30 02:55:10;;;;;;;10.10;5.70;;;21.80;1.00;;;;;;5094882;28;20446;-79
2022/06/30 02:57:40;;;;;;;8.73;4.47;;;21.70;1.00;;;;;;5088767;28;20418;-79
2022/06/30 03:00:11;;;;;;;8.67;4.50;;;21.70;1.00;;;;;;5089916;28;20454;-77
2022/06/30 03:02:40;;;;;;;9.43;4.90;;;21.70;1.00;;;;;;5078754;28;20578;-79
2022/06/30 03:05:09;;;;;;;10.60;6.10;;;21.60;1.00;;;;;;5069436;28;20461;-77
2022/06/30 03:07:41;;;;;;;9.33;4.93;;;21.60;1.00;;;;;;5070604;28;20453;-79
2022/06/30 03:10:09;;;;;;;9.10;4.93;;;21.50;1.00;;;;;;5073505;28;20485;-79
2022/06/30 03:12:40;;;;;;;9.13;5.20;;;21.40;1.00;;;;;;5092063;28;20864;-77
2022/06/30 03:15:09;;;;;;;8.07;5.17;;;21.20;1.00;;;;;;5076832;28;20852;-79
2022/06/30 03:17:45;;;;;;;8.53;5.30;;;21.10;1.00;;;;;;5095067;28;20479;-79
2022/06/30 03:20:12;;;;;;;8.70;5.00;;;20.90;1.00;;;;;;5086991;28;20465;-80
2022/06/30 03:22:44;;;;;;;10.20;5.37;;;20.80;1.00;;;;;;5089023;27;20421;-78
2022/06/30 03:25:11;;;;;;;11.47;6.80;;;20.60;1.00;;;;;;5095685;28;20473;-79
2022/06/30 03:27:42;;;;;;;11.57;6.20;;;20.40;1.00;;;;;;5095549;28;20482;-77
2022/06/30 03:30:11;;;;;;;10.10;6.63;;;20.20;1.00;;;;;;5092955;28;20520;-80
2022/06/30 03:32:41;;;;;;;12.20;7.97;;;20.00;1.00;;;;;;5098044;28;20439;-77
2022/06/30 03:35:09;;;;;;;12.53;7.03;;;19.80;1.00;;;;;;5093660;28;20466;-78
2022/06/30 03:37:40;;;;;;;13.80;7.43;;;19.70;1.00;;;;;;5091958;28;20461;-77
2022/06/30 03:40:08;;;;;;;12.47;7.50;;;19.70;1.00;;;;;;5092793;28;21073;-79
2022/06/30 03:42:40;;;;;;;10.83;7.53;;;19.60;1.00;;;;;;5087376;28;20501;-78
2022/06/30 03:45:08;;;;;;;12.30;6.87;;;19.50;1.00;;;;;;5091193;28;20508;-78
2022/06/30 03:47:41;;;;;;;12.30;7.60;;;19.40;1.00;;;;;;5091729;28;20450;-77
2022/06/30 03:50:10;;;;;;;11.30;7.70;;;19.40;1.00;;;;;;5076234;28;20522;-80
2022/06/30 03:52:44;;;;;;;13.43;7.90;;;19.40;1.00;;;;;;5072921;28;20438;-78
2022/06/30 03:55:12;;;;;;;13.67;8.43;;;19.40;1.00;;;;;;5074227;28;20545;-76
2022/06/30 03:57:41;;;;;;;11.63;7.43;;;19.30;1.00;;;;;;5072312;28;20428;-77
2022/06/30 04:00:10;;;;;;;14.40;8.17;;;19.30;1.00;;;;;;5067383;28;20526;-76
2022/06/30 04:02:51;;;;;;;13.83;8.10;;;19.30;1.00;;;;;;5083909;28;20606;-79
2022/06/30 04:05:24;;;;;;;11.50;7.90;;;19.30;1.00;;;;;;5087187;28;20465;-78
2022/06/30 04:07:51;;;;;;;12.40;7.43;;;19.30;1.00;;;;;;5093987;27;20972;-78
2022/06/30 04:10:25;;;;;;;13.70;8.40;;;19.30;1.00;;;;;;5091831;28;20514;-79
2022/06/30 04:12:52;;;;;;;17.57;8.50;;;19.30;1.00;;;;;;5088899;28;22514;-76
2022/06/30 04:15:20;;;;;;;12.53;8.00;;;19.30;1.00;;;;;;5085818;28;20481;-75
2022/06/30 04:17:48;;;;;;;15.30;9.00;;;19.30;1.00;;;;;;5087196;28;20423;-76
2022/06/30 04:20:18;;;;;;;11.00;7.60;;;19.40;1.00;;;;;;5085339;28;20437;-77
2022/06/30 04:22:48;;;;;;;12.83;8.67;;;19.50;1.00;;;;;;5084808;28;20481;-76
2022/06/30 04:25:16;;;;;;;12.03;8.13;;;19.50;1.00;;;;;;5086276;28;20462;-75
2022/06/30 04:27:44;;;;;;;12.47;8.43;;;19.60;1.00;;;;;;5087123;28;20450;-76
2022/06/30 04:30:12;;;;;;;12.33;7.73;;;19.60;1.00;;;;;;5083533;27;20454;-76
2022/06/30 04:32:41;;;;;;;13.83;8.07;;;19.60;1.00;;;;;;5091095;28;20415;-77
2022/06/30 04:35:13;;;;;;;14.97;10.93;;;19.70;1.00;;;;;;5092431;28;20994;-77
2022/06/30 04:37:45;;;;;;;13.30;8.70;;;19.90;1.00;;;;;;5092757;28;20426;-77
2022/06/30 04:42:56;;;;;;;13.37;7.43;;;20.10;1.00;;;;;;5068921;28;20466;-80
2022/06/30 04:45:25;;;;;;;12.13;6.60;;;20.30;1.00;;;;;;5090720;28;20442;-78
2022/06/30 04:47:57;;;;;;;14.60;7.90;;;20.50;1.00;;;;;;5092251;28;20554;-81
2022/06/30 04:50:27;;;;;;;10.97;7.97;;;20.50;1.00;;;;;;5094465;28;20453;-79
2022/06/30 04:52:54;;;;;;;13.40;8.87;;;20.60;1.00;;;;;;5089873;28;20531;-80
2022/06/30 04:55:24;;;;;;;11.07;7.50;;;20.70;1.00;;;;;;5096179;28;21372;-80
2022/06/30 04:57:56;;;;;;;13.07;9.10;;;20.70;1.00;;;;;;5094775;28;20429;-80
2022/06/30 05:00:23;;;;;;;11.50;7.27;;;20.70;1.00;;;;;;5086779;28;20537;-77
2022/06/30 05:02:54;;;;;;;11.30;7.20;;;20.80;1.00;;;;;;5092124;28;20431;-79
2022/06/30 05:05:21;;;;;;;11.93;7.30;;;20.90;1.00;;;;;;5080584;28;20489;-79
2022/06/30 05:07:54;;;;;;;11.83;7.20;;;21.20;1.00;;;;;;5093506;28;21332;-82
2022/06/30 05:10:22;;;;;;;10.60;7.03;;;21.30;1.00;;;;;;5094805;28;21265;-81
2022/06/30 05:12:55;;;;;;;13.07;6.77;;;21.50;1.00;;;;;;5099611;28;20499;-83
2022/06/30 05:15:22;;;;;;;11.40;9.70;;;21.70;1.00;;;;;;5093973;28;20474;-76
2022/06/30 05:17:50;;;;;;;13.33;7.73;;;21.80;1.00;;;;;;5095574;28;20450;-78
2022/06/30 05:20:17;;;;;;;12.30;7.10;;;21.80;1.00;;;;;;5097613;28;20458;-80
2022/06/30 05:22:43;;;;;;;10.27;6.23;;;21.90;1.00;;;;;;5094762;28;20471;-81
2022/06/30 05:28:00;;;;;;;10.27;6.80;;;21.90;1.00;;;;;;5094148;28;20447;-77
2022/06/30 05:30:27;;;;;;;11.20;7.33;;;21.90;1.00;;;;;;5093622;28;20450;-82
2022/06/30 05:32:57;;;;;;;10.00;6.93;;;21.80;1.00;;;;;;5097429;28;20486;-79
2022/06/30 05:35:24;;;;;;;10.73;6.33;;;21.70;1.00;;;;;;5092690;28;20525;-77
2022/06/30 05:37:55;;;;;;;9.17;6.30;;;21.70;1.00;;;;;;5094054;28;20470;-78
2022/06/30 05:40:23;;;;;;;11.37;8.00;;;21.60;1.00;;;;;;5090389;28;21314;-79
2022/06/30 05:42:57;;;;;;;11.30;6.80;;;21.60;1.00;;;;;;5088764;28;20414;-80
2022/06/30 05:45:24;;;;;;;10.83;7.00;;;21.60;1.00;;;;;;5092727;28;20521;-75
2022/06/30 05:47:55;;;;;;;14.10;7.30;;;21.70;1.00;;;;;;5090200;28;20419;-78
2022/06/30 05:50:23;;;;;;;9.93;6.30;;;21.70;1.00;;;;;;5091678;28;20470;-80
2022/06/30 05:52:56;;;;;;;11.37;6.63;;;21.70;1.00;;;;;;5082306;28;20459;-79
2022/06/30 05:55:25;;;;;;;10.40;6.27;;;21.60;1.00;;;;;;5096574;28;21003;-78
2022/06/30 05:57:56;;;;;;;12.50;7.50;;;21.60;1.00;;;;;;5081648;28;20642;-78
2022/06/30 06:00:27;;;;;;;10.13;6.10;;;21.60;1.00;;;;;;5093957;28;21282;-80
2022/06/30 06:02:56;;;;;;;11.27;6.40;;;21.60;1.00;;;;;;5086238;28;20419;-79
2022/06/30 06:05:23;;;;;;;9.80;6.60;;;21.60;1.00;;;;;;5087378;28;20467;-79
2022/06/30 06:07:55;;;;;;;11.50;7.20;;;21.80;1.00;;;;;;5096962;28;20433;-78
2022/06/30 06:10:22;;;;;;;10.47;6.60;;;21.90;1.00;;;;;;5093882;28;20454;-78
2022/06/30 06:12:55;;;;;;;13.33;10.30;;;22.00;1.00;;;;;;5072206;28;20460;-79
2022/06/30 06:15:22;;;;;;;13.27;7.80;;;22.10;1.00;;;;;;5086409;28;20905;-79
2022/06/30 06:17:53;;;;;;;10.67;6.77;;;22.20;1.00;;;;;;5071418;28;20950;-78
2022/06/30 06:20:20;;;;;;;13.70;6.67;;;22.30;1.00;;;;;;5073287;28;20455;-78
2022/06/30 06:22:48;;;;;;;11.87;6.73;;;22.30;1.00;;;;;;5072663;28;20482;-78
2022/06/30 06:25:16;;;;;;;9.90;6.73;;;22.40;1.00;;;;;;5078667;28;20453;-79
2022/06/30 06:29:05;;;;;;;10.80;7.30;;;22.40;1.00;;;;;;5082075;28;20531;-79
2022/06/30 06:30:37;;;;;;;12.13;6.47;;;22.40;1.00;;;;;;5088127;28;20435;-78
2022/06/30 06:33:07;;;;;;;11.77;8.00;;;22.50;1.00;;;;;;5091889;28;20477;-81
2022/06/30 06:35:34;;;;;;;10.43;7.23;;;22.60;1.00;;;;;;5085604;28;20507;-77
2022/06/30 06:38:06;;;;;;;10.30;7.20;;;22.70;1.00;;;;;;5088405;28;20494;-78
2022/06/30 06:40:47;;;;;;;11.47;7.13;;;22.80;1.00;;;;;;5077726;28;20463;-78
2022/06/30 06:43:16;;;;;;;10.07;7.17;;;22.90;1.00;;;;;;5090319;28;20458;-78
2022/06/30 06:45:45;;;;;;;10.17;6.60;;;23.00;1.00;;;;;;5088068;28;20434;-79
2022/06/30 06:48:14;;;;;;;13.20;9.70;;;23.10;1.00;;;;;;5090204;28;20457;-78
2022/06/30 06:50:45;;;;;;;10.77;6.73;;;23.20;1.00;;;;;;5082013;28;20430;-78
2022/06/30 06:53:17;;;;;;;13.83;7.37;;;23.30;1.00;;;;;;5086856;28;20422;-77
2022/06/30 06:55:45;;;;;;;11.10;8.00;;;23.40;1.00;;;;;;5091185;28;20463;-80
2022/06/30 06:58:19;;;;;;;9.67;6.87;;;23.30;1.00;;;;;;5098924;28;20424;-80
2022/06/30 07:00:54;;;;;;;12.17;7.63;;;23.20;1.00;;;;;;5090495;28;20454;-78
2022/06/30 07:03:21;;;;;;;14.60;7.50;;;23.10;1.00;;;;;;5093733;28;20887;-80
2022/06/30 07:05:49;;;;;;;10.93;8.20;;;23.10;1.00;;;;;;5090139;28;20461;-79
2022/06/30 07:08:21;;;;;;;11.17;8.13;;;22.90;1.00;;;;;;5098093;28;20538;-79
2022/06/30 07:10:48;;;;;;;18.50;15.87;;;22.80;1.00;;;;;;5092752;28;20977;-79
2022/06/30 07:13:15;;;;;;;10.47;7.93;;;22.90;1.00;;;;;;5097467;28;20457;-78
2022/06/30 07:15:42;;;;;;;12.60;7.80;;;23.00;1.00;;;;;;5095922;28;20506;-79
2022/06/30 07:18:15;;;;;;;11.70;8.33;;;23.20;1.00;;;;;;5093658;28;20589;-78
2022/06/30 07:20:42;;;;;;;9.47;7.27;;;23.30;1.00;;;;;;5093175;28;20512;-78
2022/06/30 07:23:14;;;;;;;15.50;10.80;;;23.60;1.00;;;;;;5090340;28;20509;-78
2022/06/30 07:25:41;;;;;;;10.40;8.40;;;23.80;1.00;;;;;;5091729;27;20474;-79
2022/06/30 07:28:15;;;;;;;13.07;8.17;;;24.00;1.00;;;;;;5092641;28;20454;-79
2022/06/30 07:30:42;;;;;;;11.60;7.80;;;24.20;1.00;;;;;;5090765;28;20577;-80
2022/06/30 07:33:17;;;;;;;12.77;8.20;;;24.50;1.00;;;;;;5098047;28;20462;-79
2022/06/30 07:35:48;;;;;;;10.77;7.97;;;24.80;1.00;;;;;;5097821;28;20535;-83
2022/06/30 07:38:16;;;;;;;12.63;8.50;;;24.90;1.00;;;;;;5097582;28;20592;-81
2022/06/30 07:40:43;;;;;;;10.27;7.93;;;24.90;1.00;;;;;;5087897;28;20465;-78
2022/06/30 07:43:17;;;;;;;10.50;8.70;;;24.90;1.00;;;;;;5082768;28;20455;-81
2022/06/30 07:45:44;;;;;;;14.80;11.77;;;25.00;1.00;;;;;;5096082;28;21533;-77
2022/06/30 07:48:17;;;;;;;10.90;9.07;;;24.90;1.00;;;;;;5096509;28;20497;-76
2022/06/30 07:50:47;;;;;;;11.67;8.53;;;24.80;1.00;;;;;;5094371;28;20451;-80
2022/06/30 07:53:16;;;;;;;10.10;8.60;;;24.90;1.00;;;;;;5097143;28;20443;-79
2022/06/30 07:55:43;;;;;;;9.73;8.23;;;24.90;1.00;;;;;;5090781;28;20439;-76
2022/06/30 07:58:15;;;;;;;11.67;7.90;;;24.90;1.00;;;;;;5093302;28;20948;-76
2022/06/30 08:00:42;;;;;;;12.47;9.90;;;24.70;1.00;;;;;;5094092;28;20434;-77
2022/06/30 08:03:14;;;;;;;20.23;14.00;;;24.50;1.00;;;;;;5094242;28;21662;-78
2022/06/30 08:05:42;;;;;;;14.03;10.20;;;24.60;1.00;;;;;;5093669;28;20470;-76
2022/06/30 08:08:14;;;;;;;11.00;9.37;;;24.50;1.00;;;;;;5097508;28;20866;-76
2022/06/30 08:10:41;;;;;;;14.03;9.10;;;24.80;1.00;;;;;;5091256;28;20473;-76
2022/06/30 08:13:08;;;;;;;12.23;8.83;;;24.90;1.00;;;;;;5091812;28;21886;-76
2022/06/30 08:15:36;;;;;;;10.07;8.10;;;24.90;1.00;;;;;;5086076;28;20439;-76
2022/06/30 08:18:04;;;;;;;10.20;8.83;;;24.90;1.00;;;;;;5093777;28;20882;-78
2022/06/30 08:20:36;;;;;;;10.67;8.90;;;24.80;1.00;;;;;;5092776;28;20436;-77
2022/06/30 08:23:04;;;;;;;11.60;8.83;;;24.90;1.00;;;;;;5093564;28;20449;-78
2022/06/30 08:25:36;;;;;;;10.40;8.70;;;24.90;1.00;;;;;;5096882;28;20427;-77
2022/06/30 08:28:05;;;;;;;11.60;8.80;;;24.90;1.00;;;;;;5093379;28;20454;-76
2022/06/30 08:30:37;;;;;;;12.90;9.17;;;24.80;1.00;;;;;;5095027;28;20515;-77
2022/06/30 08:33:04;;;;;;;13.17;8.50;;;25.00;1.00;;;;;;5095563;28;20550;-76
2022/06/30 08:35:36;;;;;;;11.70;8.50;;;25.30;1.00;;;;;;5089336;28;20458;-77
2022/06/30 08:38:04;;;;;;;11.13;8.00;;;25.30;1.00;;;;;;5095822;28;20571;-76
2022/06/30 08:43:24;;;;;;;12.70;9.50;;;25.60;1.00;;;;;;5098593;28;20470;-79
2022/06/30 08:46:02;;;;;;;13.23;9.60;;;26.00;1.00;;;;;;5096969;28;20465;-83
2022/06/30 08:48:32;;;;;;;12.33;9.13;;;26.10;1.00;;;;;;5095173;28;20462;-81
2022/06/30 08:51:04;;;;;;;12.57;8.73;;;26.20;1.00;;;;;;5094717;28;20462;-79
2022/06/30 08:53:45;;;;;;;11.70;8.77;;;26.10;1.00;;;;;;5078147;28;20496;-86
2022/06/30 08:56:16;;;;;;;11.73;8.97;;;26.40;1.00;;;;;;5089549;28;20475;-78
2022/06/30 08:58:44;;;;;;;12.10;8.97;;;26.10;1.00;;;;;;5091529;28;20431;-77
2022/06/30 09:01:15;;;;;;;14.90;10.03;;;25.50;1.00;;;;;;5087988;28;20445;-78
2022/06/30 09:03:42;;;;;;;13.20;9.90;;;25.50;1.00;;;;;;5086152;28;20478;-76
2022/06/30 09:06:19;;;;;;;13.07;9.40;;;25.90;1.00;;;;;;5089502;28;20466;-79
2022/06/30 09:08:48;;;;;;;13.03;10.10;;;26.10;1.00;;;;;;5089250;27;20512;-77
2022/06/30 09:11:16;;;;;;;11.33;9.03;;;26.10;1.00;;;;;;5093837;28;21469;-77
2022/06/30 09:13:48;;;;;;;12.37;9.40;;;26.10;1.00;;;;;;5089610;28;20492;-77
2022/06/30 09:16:17;;;;;;;12.57;9.67;;;26.20;1.00;;;;;;5089647;28;20450;-78
2022/06/30 09:18:45;;;;;;;12.87;9.27;;;26.30;1.00;;;;;;5087928;28;20524;-76
2022/06/30 09:21:17;;;;;;;12.97;10.07;;;26.40;1.00;;;;;;5085714;27;20484;-78
2022/06/30 09:23:45;;;;;;;13.83;9.70;;;26.50;1.00;;;;;;5088583;28;20454;-77
2022/06/30 09:26:20;;;;;;;11.30;9.00;;;26.60;1.00;;;;;;5089617;28;20478;-78
2022/06/30 09:28:50;;;;;;;10.70;8.80;;;26.60;1.00;;;;;;5090626;28;20454;-78
2022/06/30 09:31:38;;;;;;;10.83;9.10;;;26.60;1.00;;;;;;5087327;28;20928;-77
2022/06/30 09:34:18;;;;;;;11.60;9.60;;;26.80;1.00;;;;;;5088770;28;20463;-77
2022/06/30 09:36:49;;;;;;;15.33;9.20;;;27.00;1.00;;;;;;5090666;28;20438;-78
2022/06/30 09:39:17;;;;;;;12.60;9.57;;;27.20;1.00;;;;;;5089642;28;20510;-77
2022/06/30 09:41:46;;;;;;;12.30;9.30;;;27.30;1.00;;;;;;5090579;28;20437;-77
2022/06/30 09:44:21;;;;;;;11.07;8.37;;;27.50;1.00;;;;;;5089881;28;20418;-77
2022/06/30 09:46:59;;;;;;;12.77;11.33;;;27.90;1.00;;;;;;5087668;28;20959;-75
2022/06/30 09:49:36;;;;;;;11.00;9.67;;;28.00;1.00;;;;;;5083003;28;20602;-77
2022/06/30 09:52:05;;;;;;;11.40;8.93;;;27.70;1.00;;;;;;5062489;28;21088;-75
2022/06/30 09:54:38;;;;;;;12.60;9.80;;;28.10;1.00;;;;;;5083187;28;20445;-77
2022/06/30 09:57:11;;;;;;;11.77;10.07;;;28.50;1.00;;;;;;5090316;28;20783;-77
2022/06/30 09:59:40;;;;;;;15.13;9.60;;;28.80;1.00;;;;;;5083865;28;20462;-76
2022/06/30 10:02:11;;;;;;;12.80;9.27;;;29.80;1.00;;;;;;5086164;28;20455;-77
2022/06/30 10:04:58;;;;;;;13.03;9.97;;;29.90;1.00;;;;;;5086515;28;22824;-78
2022/06/30 10:07:26;;;;;;;13.00;10.80;;;29.60;1.00;;;;;;5087089;28;20553;-78
2022/06/30 10:09:56;;;;;;;14.00;9.70;;;30.10;1.00;;;;;;5093007;28;20512;-78
2022/06/30 10:12:28;;;;;;;11.40;9.17;;;31.00;1.00;;;;;;5089743;28;20542;-78
2022/06/30 10:14:57;;;;;;;11.30;9.10;;;31.80;1.00;;;;;;5081151;28;20489;-77
2022/06/30 10:17:26;;;;;;;9.63;8.27;;;32.30;1.00;;;;;;5087201;27;20475;-77
2022/06/30 10:19:56;;;;;;;13.33;10.77;;;32.80;1.00;;;;;;5087416;28;20423;-76
2022/06/30 10:22:25;;;;;;;16.50;12.10;;;33.30;1.00;;;;;;5088842;28;20977;-77
2022/06/30 10:24:57;;;;;;;12.90;11.30;;;33.10;1.00;;;;;;5087472;28;20466;-76
2022/06/30 10:27:27;;;;;;;13.90;12.03;;;32.80;1.00;;;;;;5086258;28;20565;-76
2022/06/30 10:30:00;;;;;;;13.30;11.30;;;32.70;1.00;;;;;;5091161;28;20446;-75
2022/06/30 10:32:44;;;;;;;14.00;10.97;;;32.50;1.00;;;;;;5088212;28;20463;-76
2022/06/30 10:35:23;;;;;;;11.53;10.33;;;32.40;1.00;;;;;;5089935;28;20458;-76
2022/06/30 10:38:02;;;;;;;13.30;11.53;;;31.70;1.00;;;;;;5076923;28;20462;-75
2022/06/30 10:40:52;;;;;;;13.07;11.67;;;31.00;1.00;;;;;;5079072;28;20937;-77
2022/06/30 10:43:21;;;;;;;12.83;11.40;;;30.80;1.00;;;;;;5092542;28;21321;-76
2022/06/30 10:45:56;;;;;;;13.53;12.10;;;30.90;1.00;;;;;;5077168;28;20462;-77
2022/06/30 10:48:27;;;;;;;12.93;11.40;;;30.70;1.00;;;;;;5084350;28;20489;-77
2022/06/30 10:50:54;;;;;;;12.43;11.00;;;30.70;1.00;;;;;;5092087;28;20461;-77
2022/06/30 10:53:50;;;;;;;13.73;11.50;;;31.40;1.00;;;;;;5090177;28;20462;-76
2022/06/30 10:56:17;;;;;;;15.63;10.93;;;32.50;1.00;;;;;;5090298;28;20488;-75
2022/06/30 10:59:10;;;;;;;14.00;12.50;;;33.30;1.00;;;;;;5089358;28;20469;-75
2022/06/30 11:01:37;;;;;;;11.70;10.50;;;32.80;1.00;;;;;;5089931;28;20595;-77
2022/06/30 11:04:10;;;;;;;15.83;12.10;;;31.80;1.00;;;;;;5088207;28;20490;-76
2022/06/30 11:07:11;;;;;;;13.77;12.20;;;31.70;1.00;;;;;;5084107;28;20876;-77
2022/06/30 11:10:06;;;;;;;11.50;10.27;;;32.70;1.00;;;;;;5089284;28;20485;-77
2022/06/30 11:12:56;;;;;;;12.57;10.87;;;33.50;1.00;;;;;;5086805;28;20490;-77
2022/06/30 11:15:53;;;;;;;12.50;11.10;;;34.50;1.00;;;;;;5088580;28;20603;-77
2022/06/30 11:18:23;;;;;;;12.83;11.53;;;35.20;1.00;;;;;;5088588;28;20912;-76
2022/06/30 11:20:54;;;;;;;13.30;12.00;;;36.00;1.00;;;;;;5066682;28;20474;-76
2022/06/30 11:23:22;;;;;;;13.67;12.27;;;35.90;1.00;;;;;;5088391;28;20497;-76
2022/06/30 11:28:38;;;;;;;13.43;12.13;;;34.20;1.00;;;;;;5086108;28;20533;-77
2022/06/30 11:31:23;;;;;;;14.57;13.07;;;33.20;1.00;;;;;;5086144;28;20450;-77
2022/06/30 11:33:55;;;;;;;13.07;11.70;;;32.10;1.00;;;;;;5089270;28;20457;-78
2022/06/30 11:36:21;;;;;;;14.97;12.30;;;31.50;1.00;;;;;;5090531;27;20437;-77
2022/06/30 11:38:54;;;;;;;13.87;12.47;;;31.10;1.00;;;;;;5088834;28;20446;-76
2022/06/30 11:44:10;;;;;;;16.13;12.67;;;30.70;1.00;;;;;;5091957;28;20450;-76
2022/06/30 11:46:54;;;;;;;13.73;12.23;;;30.30;1.00;;;;;;5089260;28;20442;-76
2022/06/30 11:49:21;;;;;;;14.30;12.90;;;29.90;1.00;;;;;;5084517;28;20484;-76
2022/06/30 11:51:50;;;;;;;13.97;12.43;;;29.80;1.00;;;;;;5086562;28;20454;-78
2022/06/30 11:54:18;;;;;;;13.53;11.60;;;29.90;1.00;;;;;;5090037;28;20477;-75
2022/06/30 11:56:47;;;;;;;12.57;11.27;;;31.50;1.00;;;;;;5087914;28;20461;-77
2022/06/30 11:59:16;;;;;;;12.63;11.33;;;33.90;1.00;;;;;;5090821;28;20455;-77
2022/06/30 12:01:58;;;;;;;12.10;10.70;;;35.30;1.00;;;;;;5087508;28;20474;-77
2022/06/30 12:04:27;;;;;;;13.20;10.73;;;34.80;1.00;;;;;;5085894;28;20457;-79
2022/06/30 12:06:54;;;;;;;12.83;11.30;;;33.90;1.00;;;;;;5088916;28;20462;-77
2022/06/30 12:09:21;;;;;;;11.23;9.90;;;33.70;1.00;;;;;;5095518;28;20861;-76
2022/06/30 12:11:48;;;;;;;11.90;10.60;;;35.20;1.00;;;;;;5085564;28;20952;-78
2022/06/30 12:14:20;;;;;;;14.13;10.43;;;36.70;1.00;;;;;;5091286;28;20415;-77
2022/06/30 12:16:55;;;;;;;12.13;10.30;;;36.90;1.00;;;;;;5091672;28;20450;-76
2022/06/30 12:19:23;;;;;;;12.17;10.60;;;36.50;1.00;;;;;;5093321;28;20930;-76
2022/06/30 12:21:56;;;;;;;10.67;9.57;;;36.30;1.00;;;;;;5093401;28;20519;-77
2022/06/30 12:24:24;;;;;;;11.97;10.77;;;37.50;1.00;;;;;;5093971;28;20859;-77
2022/06/30 12:26:57;;;;;;;11.50;10.40;;;38.50;1.00;;;;;;5094224;27;20486;-77
2022/06/30 12:29:26;;;;;;;11.90;10.70;;;39.10;1.00;;;;;;5093166;28;20466;-76
2022/06/30 12:32:00;;;;;;;13.77;10.90;;;38.30;1.00;;;;;;5089765;28;20541;-75
2022/06/30 12:34:28;;;;;;;12.77;11.47;;;36.60;1.00;;;;;;5095808;28;20462;-78
2022/06/30 12:37:00;;;;;;;12.13;9.70;;;35.10;1.00;;;;;;5094076;28;20574;-76
2022/06/30 12:39:27;;;;;;;12.30;10.10;;;34.30;1.00;;;;;;5092964;28;20537;-76
2022/06/30 12:42:07;;;;;;;12.67;11.23;;;34.00;1.00;;;;;;5096837;28;20716;-75
2022/06/30 12:44:40;;;;;;;11.73;10.53;;;34.20;1.00;;;;;;5091345;28;20626;-78
2022/06/30 12:47:09;;;;;;;12.07;10.70;;;34.30;1.00;;;;;;5094479;28;20447;-75
2022/06/30 12:49:38;;;;;;;12.20;10.63;;;34.00;1.00;;;;;;5096892;28;20451;-77
2022/06/30 12:52:21;;;;;;;11.70;10.50;;;33.90;1.00;;;;;;5092882;28;20498;-78
2022/06/30 12:54:56;;;;;;;11.60;8.87;;;35.20;1.00;;;;;;5092634;28;20981;-76
2022/06/30 12:57:26;;;;;;;12.20;10.90;;;36.70;1.00;;;;;;5094876;28;20458;-77
2022/06/30 12:59:57;;;;;;;14.10;10.97;;;37.40;1.00;;;;;;5085718;28;20486;-77
2022/06/30 13:02:37;;;;;;;11.97;9.33;;;37.20;1.00;;;;;;5091260;28;20465;-77
2022/06/30 13:05:05;;;;;;;11.03;9.50;;;37.30;1.00;;;;;;5091256;28;20485;-75
2022/06/30 13:07:37;;;;;;;10.93;9.57;;;37.80;1.00;;;;;;5089664;28;20487;-77
2022/06/30 13:10:05;;;;;;;10.57;9.37;;;38.60;1.00;;;;;;5093828;28;20461;-76
2022/06/30 13:12:35;;;;;;;10.40;9.30;;;38.80;1.00;;;;;;5095195;28;20557;-76
2022/06/30 13:15:02;;;;;;;11.67;9.27;;;38.50;1.00;;;;;;5093672;28;20537;-77
2022/06/30 13:17:29;;;;;;;11.97;9.20;;;39.30;1.00;;;;;;5094229;28;20927;-77
2022/06/30 13:19:57;;;;;;;11.60;9.07;;;39.90;1.00;;;;;;5093203;28;20434;-76
2022/06/30 13:22:23;;;;;;;13.37;12.07;;;39.90;1.00;;;;;;5093876;28;21035;-76